Time;durP1;ratioP1;P1;durP2;ratioP2;P2;SDS_P1;SDS_P2;PMS_P1;PMS_P2;Temp;Humidity;BMP_temperature;BMP_pressure;BME280_temperature;BME280_humidity;BME280_pressure;Samples;Min_cycle;Max_cycle;Signal;HPM_P1;HPM_P2
2022/07/12 00:00:12;;;;;;;5.65;1.73;;;;;;;21.26;47.00;101819.25;5049706;27;99327;-70
2022/07/12 00:02:39;;;;;;;5.07;1.60;;;;;;;21.32;46.58;101826.91;5044189;27;98802;-69
2022/07/12 00:05:06;;;;;;;6.35;1.40;;;;;;;21.30;46.81;101831.50;5046701;27;96981;-70
2022/07/12 00:07:33;;;;;;;2.97;1.27;;;;;;;21.21;47.09;101832.06;5049318;27;97131;-70
2022/07/12 00:10:00;;;;;;;3.15;1.27;;;;;;;21.05;47.50;101834.84;5046762;27;99526;-70
2022/07/12 00:12:27;;;;;;;1.95;1.10;;;;;;;20.88;47.52;101835.00;5044901;27;99272;-70
2022/07/12 00:14:54;;;;;;;3.70;2.00;;;;;;;20.97;47.32;101839.81;5043791;27;98133;-69
2022/07/12 00:17:20;;;;;;;5.75;1.30;;;;;;;21.06;46.89;101836.56;5044868;27;97852;-71
2022/07/12 00:19:47;;;;;;;3.35;1.40;;;;;;;21.11;46.74;101837.16;5049259;27;98245;-69
2022/07/12 00:22:13;;;;;;;3.35;1.63;;;;;;;21.02;47.26;101838.56;5049028;27;98067;-71
2022/07/12 00:24:40;;;;;;;3.30;1.13;;;;;;;20.85;47.61;101837.88;5047893;27;96765;-71
2022/07/12 00:27:08;;;;;;;6.07;1.67;;;;;;;20.87;47.33;101836.00;5048447;27;97473;-70
2022/07/12 00:29:34;;;;;;;6.10;1.85;;;;;;;20.92;47.61;101840.13;5046822;27;98301;-70
2022/07/12 00:32:01;;;;;;;5.18;1.30;;;;;;;20.99;46.73;101829.84;5049678;27;98863;-69
2022/07/12 00:34:27;;;;;;;7.82;1.58;;;;;;;20.95;46.50;101836.34;5041785;27;98481;-70
2022/07/12 00:36:54;;;;;;;2.15;1.20;;;;;;;20.88;46.86;101843.06;5048790;27;98216;-70
2022/07/12 00:39:20;;;;;;;3.45;1.20;;;;;;;20.95;47.54;101839.91;5044539;27;98946;-69
2022/07/12 00:41:48;;;;;;;4.82;1.92;;;;;;;20.91;47.47;101841.06;5046776;27;99806;-69
2022/07/12 00:44:16;;;;;;;4.40;1.38;;;;;;;20.96;47.76;101846.16;5043154;27;97436;-70
2022/07/12 00:46:44;;;;;;;4.70;1.70;;;;;;;20.78;47.79;101852.66;5051259;27;97100;-69
2022/07/12 00:49:15;;;;;;;6.35;1.83;;;;;;;20.95;47.49;101842.59;5050314;27;102326;-70
2022/07/12 00:51:41;;;;;;;2.45;1.42;;;;;;;20.84;47.52;101849.59;5051704;27;98880;-70
2022/07/12 00:54:08;;;;;;;2.95;1.30;;;;;;;20.78;47.67;101844.59;5045511;27;96758;-70
2022/07/12 00:56:34;;;;;;;4.30;1.48;;;;;;;20.62;47.97;101837.44;5043260;27;98329;-70
2022/07/12 00:59:01;;;;;;;6.45;1.83;;;;;;;20.55;48.16;101844.16;5048709;27;98615;-70
2022/07/12 01:01:29;;;;;;;5.88;1.65;;;;;;;20.59;48.42;101832.28;5050591;27;99163;-70
2022/07/12 01:03:56;;;;;;;3.92;1.33;;;;;;;20.55;48.71;101843.28;5049909;27;97140;-70
2022/07/12 01:06:23;;;;;;;5.10;1.33;;;;;;;20.68;48.51;101847.81;5047181;27;97186;-70
2022/07/12 01:08:49;;;;;;;4.22;1.20;;;;;;;20.61;48.61;101853.69;5050885;27;99519;-70
2022/07/12 01:11:16;;;;;;;4.07;1.30;;;;;;;20.76;47.99;101858.09;5050512;27;99895;-70
2022/07/12 01:13:44;;;;;;;4.78;1.60;;;;;;;20.77;47.76;101857.16;5046899;27;98777;-70
2022/07/12 01:16:12;;;;;;;4.63;1.52;;;;;;;20.79;47.77;101854.38;5050973;27;96844;-70
2022/07/12 01:18:41;;;;;;;5.85;1.55;;;;;;;20.67;47.31;101853.31;5050673;27;98932;-70
2022/07/12 01:21:09;;;;;;;6.82;1.42;;;;;;;20.57;48.10;101852.13;5050723;27;101970;-70
2022/07/12 01:23:38;;;;;;;2.47;1.23;;;;;;;20.65;47.89;101849.84;5050488;27;96796;-71
2022/07/12 01:26:05;;;;;;;2.75;1.23;;;;;;;20.70;48.01;101847.75;5048622;27;97189;-70
2022/07/12 01:28:31;;;;;;;3.95;1.58;;;;;;;20.55;48.56;101857.56;5047622;27;99019;-70
2022/07/12 01:30:59;;;;;;;6.82;1.33;;;;;;;20.65;48.15;101855.22;5048299;27;98818;-70
2022/07/12 01:33:27;;;;;;;5.95;1.60;;;;;;;20.57;48.72;101857.50;5043309;27;97536;-71
2022/07/12 01:35:53;;;;;;;2.28;1.00;;;;;;;20.42;48.96;101850.34;5045150;27;96825;-70
2022/07/12 01:38:19;;;;;;;4.82;1.52;;;;;;;20.30;49.16;101858.13;5049794;27;101165;-70
2022/07/12 01:40:47;;;;;;;8.25;1.88;;;;;;;20.25;49.65;101854.84;5050152;27;97806;-69
2022/07/12 01:43:14;;;;;;;7.05;1.40;;;;;;;20.28;49.81;101859.19;5050152;27;96849;-69
2022/07/12 01:45:41;;;;;;;7.13;1.60;;;;;;;20.18;49.80;101853.47;5041256;27;97562;-69
2022/07/12 01:48:07;;;;;;;4.85;1.70;;;;;;;20.18;49.89;101852.63;5043514;27;99120;-70
2022/07/12 01:50:34;;;;;;;7.78;1.83;;;;;;;20.23;49.88;101856.75;5050937;27;99166;-70
2022/07/12 01:53:01;;;;;;;5.85;1.58;;;;;;;20.10;50.54;101855.75;5051381;27;97062;-70
2022/07/12 01:55:29;;;;;;;6.25;1.50;;;;;;;20.01;50.79;101858.09;5046050;27;97706;-69
2022/07/12 01:57:58;;;;;;;6.85;1.73;;;;;;;20.01;50.77;101863.47;5048201;27;99309;-70
2022/07/12 02:00:25;;;;;;;4.65;1.30;;;;;;;19.95;50.99;101862.00;5047775;27;100838;-70
2022/07/12 02:02:51;;;;;;;3.70;1.15;;;;;;;19.79;51.29;101858.44;5048223;27;97235;-70
2022/07/12 02:05:17;;;;;;;4.88;1.23;;;;;;;19.87;50.97;101867.81;5049730;27;96844;-70
2022/07/12 02:07:44;;;;;;;5.20;1.20;;;;;;;19.82;51.42;101869.00;5049247;27;98637;-69
2022/07/12 02:10:10;;;;;;;4.93;1.55;;;;;;;19.99;50.81;101876.97;5048583;27;98801;-71
2022/07/12 02:12:37;;;;;;;8.55;1.77;;;;;;;19.90;50.81;101875.66;5044808;27;97502;-70
2022/07/12 02:15:07;;;;;;;4.00;1.20;;;;;;;19.80;50.34;101870.91;5047735;27;96867;-70
2022/07/12 02:17:33;;;;;;;2.67;1.00;;;;;;;19.85;50.68;101872.38;5045788;27;99099;-69
2022/07/12 02:20:00;;;;;;;2.15;0.90;;;;;;;19.98;50.09;101864.50;5048259;27;99001;-70
2022/07/12 02:22:26;;;;;;;6.25;1.65;;;;;;;19.70;50.80;101873.22;5047682;27;97218;-71
2022/07/12 02:24:53;;;;;;;3.88;1.42;;;;;;;19.59;51.27;101872.09;5037025;27;96982;-70
2022/07/12 02:27:19;;;;;;;2.70;0.90;;;;;;;19.74;51.16;101874.81;5045923;27;101340;-70
2022/07/12 02:29:46;;;;;;;4.90;1.30;;;;;;;19.48;51.62;101873.56;5045816;27;99259;-70
2022/07/12 02:32:14;;;;;;;3.17;0.95;;;;;;;19.48;51.55;101875.38;5049424;27;96908;-71
2022/07/12 02:34:40;;;;;;;7.75;1.27;;;;;;;19.33;51.99;101882.41;5049230;27;97343;-70
2022/07/12 02:37:07;;;;;;;4.20;1.30;;;;;;;19.48;51.78;101881.59;5045419;27;98996;-70
2022/07/12 02:39:33;;;;;;;3.03;1.13;;;;;;;19.48;51.65;101878.94;5049538;27;98768;-71
2022/07/12 02:41:59;;;;;;;4.43;1.38;;;;;;;19.23;52.45;101877.63;5052195;27;97272;-70
2022/07/12 02:44:26;;;;;;;7.85;1.45;;;;;;;19.46;52.03;101871.91;5045155;27;98956;-69
2022/07/12 02:46:53;;;;;;;4.50;1.25;;;;;;;19.48;51.97;101870.00;5045810;27;99320;-69
2022/07/12 02:49:20;;;;;;;3.70;1.10;;;;;;;19.42;52.08;101868.50;5048297;27;98929;-70
2022/07/12 02:51:47;;;;;;;5.57;1.25;;;;;;;19.28;52.80;101867.53;5051206;27;97644;-69
2022/07/12 02:54:13;;;;;;;5.30;1.40;;;;;;;19.21;53.12;101882.19;5049278;27;96880;-70
2022/07/12 02:56:40;;;;;;;3.65;1.20;;;;;;;19.40;52.56;101874.88;5049857;27;99988;-69
2022/07/12 02:59:06;;;;;;;4.00;1.20;;;;;;;19.35;52.24;101883.19;5045486;27;98939;-70
2022/07/12 03:01:33;;;;;;;4.53;1.20;;;;;;;19.08;52.98;101888.22;5050319;27;97031;-69
2022/07/12 03:03:59;;;;;;;5.40;1.00;;;;;;;19.48;52.08;101889.66;5049416;27;97549;-69
2022/07/12 03:06:27;;;;;;;3.70;1.02;;;;;;;19.67;51.53;101886.81;5049007;27;99010;-70
2022/07/12 03:08:53;;;;;;;2.92;1.10;;;;;;;19.38;51.16;101891.06;5045315;27;98812;-70
2022/07/12 03:11:20;;;;;;;3.17;1.17;;;;;;;19.35;51.45;101901.09;5050140;27;96804;-70
2022/07/12 03:13:46;;;;;;;4.07;1.23;;;;;;;19.27;51.04;101906.84;5045543;27;97479;-70
2022/07/12 03:16:13;;;;;;;5.55;0.95;;;;;;;19.37;50.36;101900.03;5044030;27;98912;-70
2022/07/12 03:18:40;;;;;;;4.35;1.33;;;;;;;19.28;50.37;101910.41;5049318;27;98774;-70
2022/07/12 03:21:07;;;;;;;2.28;1.00;;;;;;;19.44;49.75;101905.94;5051316;27;97381;-70
2022/07/12 03:23:35;;;;;;;2.85;1.10;;;;;;;19.40;49.59;101913.28;5047236;27;97021;-69
2022/07/12 03:26:01;;;;;;;1.45;1.13;;;;;;;19.36;49.43;101914.38;5044436;27;97936;-70
2022/07/12 03:28:29;;;;;;;3.10;1.20;;;;;;;19.34;48.81;101918.09;5042535;27;98888;-70
2022/07/12 03:30:55;;;;;;;4.50;1.20;;;;;;;19.44;48.39;101908.59;5047262;27;96792;-71
2022/07/12 03:33:22;;;;;;;4.50;1.42;;;;;;;19.22;48.45;101906.25;5049537;27;97282;-70
2022/07/12 03:35:48;;;;;;;3.55;1.20;;;;;;;19.54;47.89;101909.03;5048752;27;98218;-70
2022/07/12 03:38:15;;;;;;;1.42;1.20;;;;;;;19.39;48.42;101911.53;5049604;27;98831;-72
2022/07/12 03:40:43;;;;;;;4.00;1.40;;;;;;;19.41;48.55;101914.16;5046034;27;96979;-71
2022/07/12 03:43:10;;;;;;;3.00;1.45;;;;;;;19.40;48.35;101921.31;5047046;27;97739;-70
2022/07/12 03:45:36;;;;;;;1.48;1.10;;;;;;;19.56;47.71;101909.81;5046601;27;99313;-70
2022/07/12 03:48:03;;;;;;;4.53;0.90;;;;;;;19.37;47.39;101917.91;5046286;27;98994;-70
2022/07/12 03:50:30;;;;;;;5.13;1.30;;;;;;;19.41;47.18;101917.69;5048816;27;96845;-70
2022/07/12 03:52:56;;;;;;;3.65;1.10;;;;;;;19.35;47.13;101928.75;5045240;27;97211;-70
2022/07/12 03:55:23;;;;;;;7.20;1.13;;;;;;;19.27;47.09;101932.78;5046681;27;99247;-71
2022/07/12 03:57:51;;;;;;;3.38;1.08;;;;;;;19.27;46.93;101933.66;5046017;27;99362;-70
2022/07/12 04:00:17;;;;;;;2.70;1.10;;;;;;;19.38;46.62;101939.28;5050715;27;96804;-70
2022/07/12 04:02:44;;;;;;;3.75;1.33;;;;;;;19.40;46.45;101932.03;5050377;27;97165;-70
2022/07/12 04:05:11;;;;;;;3.88;0.93;;;;;;;19.69;45.62;101926.97;5047604;27;99574;-70
2022/07/12 04:07:38;;;;;;;2.88;1.13;;;;;;;19.92;45.16;101929.22;5045470;27;100645;-69
2022/07/12 04:10:06;;;;;;;2.75;0.98;;;;;;;19.99;44.65;101922.56;5050522;27;96876;-71
2022/07/12 04:12:33;;;;;;;9.38;1.70;;;;;;;20.05;44.65;101927.59;5047001;27;96869;-69
2022/07/12 04:15:01;;;;;;;4.53;1.38;;;;;;;20.20;44.32;101921.34;5038698;27;99058;-70
2022/07/12 04:17:27;;;;;;;2.97;1.13;;;;;;;20.19;44.13;101924.13;5045971;27;99483;-69
2022/07/12 04:19:54;;;;;;;4.97;1.20;;;;;;;20.38;43.65;101921.28;5046351;27;96840;-69
2022/07/12 04:22:20;;;;;;;3.75;1.08;;;;;;;20.55;43.20;101929.19;5051406;27;97022;-70
2022/07/12 04:24:47;;;;;;;4.43;1.10;;;;;;;20.84;42.81;101925.66;5052147;27;98813;-69
2022/07/12 04:27:13;;;;;;;3.15;1.35;;;;;;;20.75;42.53;101931.59;5050746;27;99032;-69
2022/07/12 04:29:40;;;;;;;3.88;1.45;;;;;;;20.60;42.67;101930.69;5048201;27;97602;-69
2022/07/12 04:32:08;;;;;;;4.18;1.20;;;;;;;20.48;42.65;101930.53;5051716;27;97372;-70
2022/07/12 04:34:35;;;;;;;2.03;1.10;;;;;;;20.56;42.96;101926.44;5052273;27;99184;-70
2022/07/12 04:37:01;;;;;;;4.45;1.13;;;;;;;20.49;42.84;101916.13;5051331;27;99130;-70
2022/07/12 04:39:27;;;;;;;3.58;1.30;;;;;;;20.54;42.99;101923.00;5053186;27;97165;-70
2022/07/12 04:41:54;;;;;;;4.35;1.48;;;;;;;20.64;42.41;101924.16;5052750;27;97431;-69
2022/07/12 04:44:20;;;;;;;6.38;1.90;;;;;;;20.73;42.17;101919.22;5044644;27;97713;-69
2022/07/12 04:46:47;;;;;;;3.30;1.60;;;;;;;20.67;42.56;101928.50;5048791;27;101263;-69
2022/07/12 04:49:14;;;;;;;3.28;1.45;;;;;;;20.90;42.22;101927.13;5048964;27;97242;-69
2022/07/12 04:51:41;;;;;;;2.50;1.65;;;;;;;20.89;41.83;101928.94;5052416;27;96772;-70
2022/07/12 04:54:08;;;;;;;6.15;1.55;;;;;;;21.05;41.44;101927.06;5050422;27;100653;-70
2022/07/12 04:56:35;;;;;;;3.67;1.58;;;;;;;21.47;40.84;101930.78;5049670;27;98821;-71
2022/07/12 04:59:01;;;;;;;5.15;1.48;;;;;;;21.62;40.36;101929.84;5051323;27;97561;-70
2022/07/12 05:01:29;;;;;;;2.83;1.42;;;;;;;21.54;39.98;101924.06;5053287;27;96968;-70
2022/07/12 05:03:55;;;;;;;5.97;1.70;;;;;;;22.12;39.43;101925.78;5050400;27;99112;-70
2022/07/12 05:06:23;;;;;;;4.82;1.33;;;;;;;23.11;36.97;101935.25;5050783;27;98892;-71
2022/07/12 05:08:50;;;;;;;5.53;1.38;;;;;;;24.70;34.60;101934.41;5051506;27;96755;-70
2022/07/12 05:11:16;;;;;;;3.95;1.35;;;;;;;25.68;32.38;101938.47;5052782;27;97226;-69
2022/07/12 05:13:42;;;;;;;3.42;1.10;;;;;;;26.26;31.04;101929.19;5049159;27;99172;-71
2022/07/12 05:16:09;;;;;;;4.28;1.38;;;;;;;25.53;31.71;101939.69;5047905;27;100297;-70
2022/07/12 05:18:36;;;;;;;3.08;1.05;;;;;;;24.44;33.60;101935.50;5055531;27;98356;-70
2022/07/12 05:21:03;;;;;;;3.22;1.33;;;;;;;24.64;33.37;101940.28;5044866;27;97307;-69
2022/07/12 05:23:31;;;;;;;4.55;1.08;;;;;;;24.92;33.12;101936.38;5047375;27;99417;-70
2022/07/12 05:25:57;;;;;;;2.53;0.93;;;;;;;24.39;34.09;101938.56;5045188;27;99133;-69
2022/07/12 05:28:24;;;;;;;2.97;1.10;;;;;;;24.03;34.63;101947.50;5047939;27;98296;-71
2022/07/12 05:30:50;;;;;;;4.72;1.10;;;;;;;23.18;35.87;101950.03;5046733;27;96896;-70
2022/07/12 05:33:17;;;;;;;4.63;0.82;;;;;;;23.15;35.97;101948.41;5050110;27;99502;-69
2022/07/12 05:35:43;;;;;;;1.77;0.95;;;;;;;23.44;35.33;101957.16;5051162;27;98828;-69
2022/07/12 05:38:10;;;;;;;7.00;1.00;;;;;;;23.62;35.27;101949.66;5052115;27;97203;-71
2022/07/12 05:40:37;;;;;;;3.42;0.90;;;;;;;23.48;34.97;101952.47;5050586;27;97400;-69
2022/07/12 05:43:04;;;;;;;3.70;0.80;;;;;;;23.10;35.47;101953.28;5050793;27;99360;-70
2022/07/12 05:45:30;;;;;;;6.45;0.88;;;;;;;23.41;35.54;101950.16;5050314;27;98850;-69
2022/07/12 05:47:56;;;;;;;21.20;1.63;;;;;;;23.49;34.89;101962.28;5050782;27;96968;-69
2022/07/12 05:50:23;;;;;;;403.60;20.20;;;;;;;22.90;35.86;101949.25;5051307;27;97402;-70
2022/07/12 05:55:33;;;;;;;21.45;1.63;;;;;;;22.88;35.13;101955.69;5042149;27;98057;-71
2022/07/12 05:58:02;;;;;;;16.52;2.60;;;;;;;23.16;34.87;101958.25;5049829;27;96718;-70
2022/07/12 06:00:29;;;;;;;90.28;4.68;;;;;;;23.12;34.54;101958.53;5047083;27;96799;-71
2022/07/12 06:02:55;;;;;;;198.35;9.73;;;;;;;23.55;34.16;101972.63;5047684;27;98898;-70
2022/07/12 06:05:22;;;;;;;48.08;2.83;;;;;;;23.48;34.10;101976.75;5050011;27;99112;-70
2022/07/12 06:07:48;;;;;;;95.75;4.78;;;;;;;23.73;33.97;101982.13;5045759;27;97342;-70
2022/07/12 06:10:15;;;;;;;22.20;1.42;;;;;;;23.74;33.75;101975.75;5047793;27;96923;-70
2022/07/12 06:12:41;;;;;;;45.33;2.55;;;;;;;23.58;34.17;101975.09;5049072;27;99637;-70
2022/07/12 06:15:10;;;;;;;3.00;0.80;;;;;;;23.28;34.77;101970.88;5048721;27;98059;-71
2022/07/12 06:17:36;;;;;;;1.50;0.60;;;;;;;22.60;35.85;101965.59;5050664;27;97454;-70
2022/07/12 06:20:04;;;;;;;7.47;0.70;;;;;;;22.88;35.51;101975.44;5045404;27;97183;-70
2022/07/12 06:22:30;;;;;;;4.20;0.90;;;;;;;23.47;34.57;101975.88;5052007;27;99322;-70
2022/07/12 06:24:57;;;;;;;2.88;0.60;;;;;;;23.74;34.42;101981.16;5050720;27;99072;-69
2022/07/12 06:27:23;;;;;;;7.55;0.88;;;;;;;23.86;33.85;101976.72;5049854;27;96804;-69
2022/07/12 06:29:50;;;;;;;5.30;0.80;;;;;;;23.37;34.41;101981.00;5047923;27;97114;-70
2022/07/12 06:32:18;;;;;;;2.90;0.70;;;;;;;23.93;34.22;101981.56;5046829;27;98477;-70
2022/07/12 06:34:48;;;;;;;8.65;3.28;;;;;;;24.00;33.43;101976.56;5050137;27;99444;-72
2022/07/12 06:37:14;;;;;;;6.60;1.02;;;;;;;24.08;33.40;101977.75;5048172;27;97566;-71
2022/07/12 06:39:41;;;;;;;3.60;0.80;;;;;;;24.21;33.32;101983.16;5044943;27;96943;-70
2022/07/12 06:42:08;;;;;;;7.38;1.05;;;;;;;24.47;32.77;101970.41;5047949;27;99603;-70
2022/07/12 06:44:35;;;;;;;6.15;0.95;;;;;;;24.87;32.48;101968.28;5048000;27;98910;-70
2022/07/12 06:47:02;;;;;;;1.80;0.70;;;;;;;25.49;31.60;101968.81;5050039;27;97798;-70
2022/07/12 06:49:30;;;;;;;2.63;0.90;;;;;;;25.90;31.24;101968.25;5049053;27;96768;-70
2022/07/12 06:51:56;;;;;;;1.98;0.70;;;;;;;25.69;30.88;101968.13;5047432;27;98179;-70
2022/07/12 06:54:23;;;;;;;6.50;0.95;;;;;;;25.69;31.06;101965.44;5044175;27;99595;-71
2022/07/12 06:56:49;;;;;;;1.58;0.70;;;;;;;25.23;31.72;101962.75;5047999;27;97754;-70
2022/07/12 06:59:16;;;;;;;4.97;0.60;;;;;;;24.96;32.46;101965.75;5046373;27;97034;-70
2022/07/12 07:01:43;;;;;;;3.70;0.80;;;;;;;25.56;32.01;101966.50;5047536;27;98267;-70
2022/07/12 07:04:10;;;;;;;6.25;0.90;;;;;;;25.47;32.07;101964.53;5044151;27;102108;-70
2022/07/12 07:06:38;;;;;;;2.70;0.90;;;;;;;25.64;31.61;101964.06;5048671;27;96867;-70
2022/07/12 07:09:07;;;;;;;4.15;0.70;;;;;;;25.81;31.42;101958.16;5042398;27;97293;-69
2022/07/12 07:11:33;;;;;;;6.72;1.30;;;;;;;25.66;31.79;101954.00;5048491;27;98900;-70
2022/07/12 07:14:00;;;;;;;3.65;0.73;;;;;;;25.36;31.82;101954.53;5046798;27;99456;-70
2022/07/12 07:16:27;;;;;;;4.25;0.70;;;;;;;25.09;32.61;101959.38;5045905;27;97089;-71
2022/07/12 07:18:53;;;;;;;2.45;0.85;;;;;;;25.61;32.41;101958.91;5046274;27;97224;-70
2022/07/12 07:21:19;;;;;;;6.32;0.93;;;;;;;26.01;31.51;101960.13;5043608;27;98292;-70
2022/07/12 07:23:47;;;;;;;2.15;0.77;;;;;;;25.92;31.83;101960.03;5043397;27;99061;-70
2022/07/12 07:26:15;;;;;;;4.18;0.70;;;;;;;25.76;31.99;101963.97;5044448;27;97219;-70
2022/07/12 07:31:21;;;;;;;2.17;0.60;;;;;;;25.59;32.22;101960.88;5043565;27;98795;-71
2022/07/12 07:33:57;;;;;;;8.30;1.05;;;;;;;25.93;31.54;101959.03;5047176;27;98814;-71
2022/07/12 07:36:23;;;;;;;1.05;0.60;;;;;;;25.93;31.83;101948.22;5048853;27;97571;-71
2022/07/12 07:38:51;;;;;;;2.83;1.10;;;;;;;26.20;31.39;101954.91;5046264;27;97570;-71
2022/07/12 07:41:17;;;;;;;2.63;0.63;;;;;;;26.54;31.05;101947.59;5044094;27;99049;-71
2022/07/12 07:43:44;;;;;;;9.75;1.25;;;;;;;26.29;31.53;101952.47;5040776;27;99180;-71
2022/07/12 07:46:10;;;;;;;4.88;0.80;;;;;;;26.09;31.96;101945.94;5045861;27;97270;-70
2022/07/12 07:48:37;;;;;;;3.95;0.60;;;;;;;26.42;31.79;101951.34;5037020;27;97353;-70
2022/07/12 07:51:03;;;;;;;1.60;0.80;;;;;;;26.46;31.80;101951.91;5046656;27;99344;-71
2022/07/12 07:53:30;;;;;;;5.68;0.80;;;;;;;26.62;31.33;101948.81;5042427;27;99153;-70
2022/07/12 07:55:58;;;;;;;5.03;0.90;;;;;;;26.79;30.99;101951.78;5045389;27;97487;-71
2022/07/12 07:58:25;;;;;;;4.22;0.88;;;;;;;26.76;30.39;101945.78;5046969;27;97312;-70
2022/07/12 08:00:51;;;;;;;3.58;1.75;;;;;;;26.34;30.75;101942.97;5047930;27;99061;-70
2022/07/12 08:03:18;;;;;;;2.33;0.70;;;;;;;26.02;31.18;101948.31;5035250;27;100034;-70
2022/07/12 08:05:45;;;;;;;5.60;2.08;;;;;;;26.19;31.25;101945.06;5040837;27;97297;-73
2022/07/12 08:08:11;;;;;;;6.45;0.73;;;;;;;26.41;31.13;101940.63;5043678;27;98405;-70
2022/07/12 08:10:38;;;;;;;2.90;0.70;;;;;;;26.93;30.73;101937.97;5042502;27;99025;-70
2022/07/12 08:13:05;;;;;;;0.80;0.52;;;;;;;27.50;29.94;101946.63;5041545;27;99761;-70
2022/07/12 08:15:32;;;;;;;2.97;0.90;;;;;;;26.99;30.57;101936.56;5047747;27;97048;-70
2022/07/12 08:17:59;;;;;;;4.13;0.77;;;;;;;27.01;30.73;101945.44;5045968;27;96852;-70
2022/07/12 08:20:25;;;;;;;4.03;0.80;;;;;;;26.92;29.75;101946.22;5046071;27;100135;-70
2022/07/12 08:22:52;;;;;;;2.05;0.93;;;;;;;26.36;30.52;101948.28;5043780;27;98903;-71
2022/07/12 08:25:22;;;;;;;3.40;1.30;;;;;;;26.18;31.02;101942.50;5045965;27;97400;-71
2022/07/12 08:27:48;;;;;;;5.22;1.00;;;;;;;26.49;29.75;101944.41;5043935;27;97198;-71
2022/07/12 08:30:16;;;;;;;14.80;1.23;;;;;;;25.96;31.35;101945.25;5045338;27;99138;-71
2022/07/12 08:32:45;;;;;;;1.45;0.50;;;;;;;26.71;29.98;101945.31;5044498;27;101948;-70
2022/07/12 08:35:12;;;;;;;4.50;0.80;;;;;;;26.72;29.71;101938.88;5046999;27;96848;-72
2022/07/12 08:37:39;;;;;;;4.28;0.60;;;;;;;26.90;29.75;101942.81;5043470;27;97777;-70
2022/07/12 08:40:07;;;;;;;2.17;0.77;;;;;;;26.09;30.15;101938.69;5045311;27;99017;-70
2022/07/12 08:42:33;;;;;;;3.22;0.60;;;;;;;26.23;30.30;101933.97;5045427;27;98844;-71
2022/07/12 08:45:00;;;;;;;1.45;0.50;;;;;;;26.27;30.16;101927.34;5044283;27;97212;-70
2022/07/12 08:47:28;;;;;;;3.67;1.42;;;;;;;25.88;30.71;101940.44;5047094;27;97657;-70
2022/07/12 08:50:14;;;;;;;4.85;1.35;;;;;;;26.45;29.39;101937.50;5046464;27;99049;-71
2022/07/12 08:52:42;;;;;;;2.35;0.63;;;;;;;26.54;29.24;101930.47;5038126;27;98900;-69
2022/07/12 08:55:23;;;;;;;3.60;0.60;;;;;;;27.16;27.96;101937.84;5047335;27;97159;-71
2022/07/12 08:57:53;;;;;;;1.17;0.43;;;;;;;27.64;27.59;101940.84;5045998;27;96909;-72
2022/07/12 09:00:20;;;;;;;1.27;0.60;;;;;;;27.64;27.70;101925.41;5046736;27;99418;-71
2022/07/12 09:02:52;;;;;;;2.63;0.50;;;;;;;27.85;27.47;101924.47;5043262;27;99266;-71
2022/07/12 09:05:20;;;;;;;0.98;0.40;;;;;;;27.79;26.79;101935.91;5047015;27;97240;-71
2022/07/12 09:07:47;;;;;;;6.85;0.55;;;;;;;27.97;27.13;101939.66;5048376;27;97250;-72
2022/07/12 09:10:14;;;;;;;5.28;0.60;;;;;;;27.16;28.31;101943.28;5050434;27;98749;-70
2022/07/12 09:12:41;;;;;;;3.50;0.60;;;;;;;27.06;28.26;101936.91;5047968;27;98767;-70
2022/07/12 09:15:13;;;;;;;2.50;0.50;;;;;;;27.14;28.76;101937.97;5047508;27;96783;-71
2022/07/12 09:17:39;;;;;;;4.00;1.17;;;;;;;27.58;28.48;101936.81;5050550;27;97487;-71
2022/07/12 09:20:10;;;;;;;2.95;0.68;;;;;;;27.46;28.64;101934.28;5049601;27;99420;-71
2022/07/12 09:22:37;;;;;;;6.68;0.65;;;;;;;27.56;28.59;101936.09;5047104;27;99374;-73
2022/07/12 09:25:16;;;;;;;4.65;0.65;;;;;;;27.43;28.65;101931.84;5043604;27;96843;-70
2022/07/12 09:27:48;;;;;;;2.45;0.60;;;;;;;27.49;28.94;101928.59;5049027;27;96955;-71
2022/07/12 09:30:15;;;;;;;2.75;0.60;;;;;;;27.54;29.03;101924.50;5043828;27;99075;-71
2022/07/12 09:38:23;;;;;;;1.23;0.60;;;;;;;27.67;27.13;101921.56;5046931;27;97309;-71
2022/07/12 09:40:50;;;;;;;3.28;1.02;;;;;;;27.53;27.47;101917.34;5049679;27;98861;-70
2022/07/12 09:43:18;;;;;;;3.40;0.93;;;;;;;27.74;27.06;101912.75;5047340;27;98887;-70
2022/07/12 09:45:47;;;;;;;0.60;0.43;;;;;;;27.54;24.54;101919.09;5049143;27;96842;-71
2022/07/12 09:48:13;;;;;;;1.00;0.70;;;;;;;27.76;25.28;101918.03;5045311;27;96859;-71
2022/07/12 09:50:42;;;;;;;3.28;0.50;;;;;;;27.38;26.65;101916.81;5046537;27;99319;-70
2022/07/12 09:53:11;;;;;;;2.55;0.50;;;;;;;27.50;26.96;101925.75;5045553;27;97798;-71
2022/07/12 09:55:40;;;;;;;1.00;0.43;;;;;;;27.82;26.06;101919.34;5049539;27;97866;-71
2022/07/12 09:58:11;;;;;;;2.42;0.38;;;;;;;27.56;25.78;101921.66;5045877;27;97691;-71
2022/07/12 10:00:38;;;;;;;1.35;0.50;;;;;;;27.48;26.07;101921.44;5040109;27;98868;-71
2022/07/12 10:03:05;;;;;;;0.98;0.50;;;;;;;27.86;25.12;101912.63;5049298;27;99974;-71
2022/07/12 10:05:35;;;;;;;2.92;0.65;;;;;;;28.02;24.38;101923.84;5049002;27;97501;-71
2022/07/12 10:08:03;;;;;;;3.30;0.60;;;;;;;28.22;23.91;101916.63;5048338;27;99225;-70
2022/07/12 10:10:33;;;;;;;1.95;0.77;;;;;;;28.39;23.65;101918.63;5049431;27;99066;-71
2022/07/12 10:13:00;;;;;;;3.40;1.20;;;;;;;28.13;23.80;101921.00;5047466;27;98972;-72
2022/07/12 10:15:29;;;;;;;2.60;0.50;;;;;;;27.69;24.42;101923.16;5050021;27;97369;-70
2022/07/12 10:17:58;;;;;;;0.80;0.30;;;;;;;27.79;25.04;101919.59;5050253;27;98179;-70
2022/07/12 10:20:27;;;;;;;3.00;0.50;;;;;;;27.43;25.75;101921.00;5048496;27;98936;-71
2022/07/12 10:22:54;;;;;;;3.17;0.70;;;;;;;27.80;25.60;101916.75;5049187;27;98971;-71
2022/07/12 10:25:33;;;;;;;3.75;0.77;;;;;;;27.92;25.35;101926.50;5050945;27;97120;-72
2022/07/12 10:28:00;;;;;;;2.28;0.40;;;;;;;27.80;25.77;101916.75;5048487;27;96918;-70
2022/07/12 10:30:27;;;;;;;2.95;0.40;;;;;;;27.10;26.00;101917.53;5047311;27;100466;-71
2022/07/12 10:32:57;;;;;;;0.68;0.38;;;;;;;27.27;25.96;101919.63;5046288;27;100549;-70
2022/07/12 10:35:25;;;;;;;0.75;0.40;;;;;;;27.53;26.02;101921.94;5050193;27;97141;-70
2022/07/12 10:38:14;;;;;;;2.58;0.47;;;;;;;27.56;25.59;101908.09;5048942;27;99208;-72
2022/07/12 10:40:45;;;;;;;1.33;0.50;;;;;;;27.63;26.31;101912.00;5047732;27;98742;-70
2022/07/12 10:44:04;;;;;;;1.08;0.43;;;;;;;27.62;26.29;101908.41;5048148;27;100344;-70
2022/07/12 10:46:14;;;;;;;;;;;;;;;27.93;25.15;101908.34;5047524;27;97042;-70
2022/07/12 10:48:41;;;;;;;4.40;0.60;;;;;;;28.24;24.82;101898.28;5048772;27;96873;-72
2022/07/12 10:51:15;;;;;;;1.05;0.50;;;;;;;28.32;25.17;101898.44;5045216;27;98867;-71
2022/07/12 10:53:42;;;;;;;2.67;0.52;;;;;;;28.26;25.58;101896.31;5046520;27;99167;-71
2022/07/12 10:56:14;;;;;;;3.10;0.40;;;;;;;28.04;25.82;101903.66;5048619;27;96956;-71
2022/07/12 10:58:43;;;;;;;2.15;0.60;;;;;;;27.98;25.33;101896.06;5048433;27;97143;-71
2022/07/12 11:01:11;;;;;;;0.75;0.30;;;;;;;28.23;26.18;101894.72;5048061;27;100463;-70
2022/07/12 11:03:44;;;;;;;3.28;0.82;;;;;;;28.48;25.54;101896.03;5041862;27;99072;-70
2022/07/12 11:06:12;;;;;;;2.53;0.70;;;;;;;29.06;24.94;101896.00;5049945;27;96940;-70
2022/07/12 11:09:03;;;;;;;0.80;0.40;;;;;;;29.32;24.50;101891.63;5046630;27;96963;-71
2022/07/12 11:11:33;;;;;;;2.55;0.60;;;;;;;29.19;24.09;101897.41;5030182;27;100988;-69
2022/07/12 11:14:02;;;;;;;1.70;0.55;;;;;;;29.18;24.08;101897.56;5043452;27;97453;-71
2022/07/12 11:16:33;;;;;;;15.90;1.40;;;;;;;28.62;25.13;101908.34;5050454;27;97154;-72
2022/07/12 11:19:00;;;;;;;0.80;0.60;;;;;;;28.90;25.01;101918.38;5048878;27;97764;-71
2022/07/12 11:21:27;;;;;;;3.60;0.82;;;;;;;29.37;24.88;101905.69;5049172;27;99186;-71
2022/07/12 11:23:54;;;;;;;1.63;0.52;;;;;;;29.64;23.99;101900.28;5049034;27;98816;-73
2022/07/12 11:26:20;;;;;;;2.45;0.60;;;;;;;30.07;23.62;101902.34;5045196;27;97788;-72
2022/07/12 11:28:51;;;;;;;0.93;0.65;;;;;;;29.83;23.99;101901.19;5048356;27;97429;-71
2022/07/12 11:31:19;;;;;;;15.07;1.35;;;;;;;30.07;24.11;101898.78;5043532;27;97914;-71
2022/07/12 11:33:48;;;;;;;3.30;0.90;;;;;;;29.81;23.96;101903.19;5048991;27;101583;-70
2022/07/12 11:36:15;;;;;;;1.48;0.60;;;;;;;30.16;23.72;101892.41;5043786;27;97210;-71